createdAt,value
2017-10-17T00:00:16.669Z,14.29
2017-10-17T00:01:16.712Z,14.29
2017-10-17T00:02:16.707Z,14.26
2017-10-17T00:03:16.728Z,14.29
2017-10-17T00:04:16.745Z,14.37
2017-10-17T00:05:16.767Z,14.22
2017-10-17T00:06:16.783Z,14.30
2017-10-17T00:07:16.805Z,14.25
2017-10-17T00:08:16.830Z,14.14
2017-10-17T00:09:16.843Z,14.17
2017-10-17T00:10:16.862Z,14.11
2017-10-17T00:11:16.886Z,14.10
2017-10-17T00:12:16.906Z,14.18
2017-10-17T00:13:16.922Z,14.28
2017-10-17T00:14:16.941Z,14.25
2017-10-17T00:15:16.960Z,14.32
2017-10-17T00:16:16.981Z,14.25
2017-10-17T00:17:17.002Z,14.29
2017-10-17T00:18:17.021Z,14.32
2017-10-17T00:19:17.040Z,14.26
2017-10-17T00:20:17.060Z,14.20
2017-10-17T00:21:17.080Z,14.20
2017-10-17T00:22:17.248Z,14.20
2017-10-17T00:23:17.120Z,14.10
2017-10-17T00:24:17.137Z,14.14
2017-10-17T00:25:17.157Z,14.23
2017-10-17T00:26:17.178Z,14.11
2017-10-17T00:27:17.197Z,14.08
2017-10-17T00:28:17.218Z,13.89
2017-10-17T00:29:17.240Z,13.85
2017-10-17T00:30:17.261Z,14.04
2017-10-17T00:31:17.282Z,13.99
2017-10-17T00:32:17.297Z,14.00
2017-10-17T00:33:17.330Z,14.04
2017-10-17T00:34:17.334Z,14.03
2017-10-17T00:35:17.376Z,14.26
2017-10-17T00:36:17.374Z,14.20
2017-10-17T00:37:17.393Z,13.95
2017-10-17T00:38:17.459Z,14.11
2017-10-17T00:39:17.432Z,14.11
2017-10-17T00:40:17.451Z,14.14
2017-10-17T00:41:17.470Z,14.08
2017-10-17T00:42:17.495Z,14.11
2017-10-17T00:43:17.512Z,14.20
2017-10-17T00:44:17.532Z,14.18
2017-10-17T00:45:17.550Z,14.26
2017-10-17T00:46:17.571Z,14.29
2017-10-17T00:47:17.601Z,14.26
2017-10-17T00:48:17.609Z,14.14
2017-10-17T00:49:17.632Z,14.15
2017-10-17T00:50:17.647Z,14.25
2017-10-17T00:51:17.666Z,14.25
2017-10-17T00:52:17.726Z,14.25
2017-10-17T00:53:17.709Z,14.33
2017-10-17T00:54:17.725Z,14.26
2017-10-17T00:55:17.745Z,14.25
2017-10-17T00:56:17.765Z,14.29
2017-10-17T00:57:17.785Z,14.30
2017-10-17T00:58:17.802Z,14.26
2017-10-17T00:59:17.823Z,14.28
2017-10-17T01:00:17.845Z,14.30
2017-10-17T01:01:17.864Z,14.18
2017-10-17T01:02:17.881Z,14.26
2017-10-17T01:03:17.901Z,14.23
2017-10-17T01:04:17.924Z,14.20
2017-10-17T01:05:17.940Z,14.29
2017-10-17T01:06:17.960Z,14.25
2017-10-17T01:07:17.982Z,14.30
2017-10-17T01:08:18.000Z,14.25
2017-10-17T01:09:18.018Z,14.25
2017-10-17T01:10:18.035Z,14.25
2017-10-17T01:11:18.056Z,14.36
2017-10-17T01:12:18.079Z,14.26
2017-10-17T01:13:18.102Z,14.26
2017-10-17T01:14:18.116Z,14.26
2017-10-17T01:15:18.137Z,14.22
2017-10-17T01:16:18.156Z,14.26
2017-10-17T01:17:18.177Z,14.14
2017-10-17T01:18:18.196Z,14.17
2017-10-17T01:19:18.216Z,14.23
2017-10-17T01:20:18.233Z,14.15
2017-10-17T01:21:18.258Z,14.20
2017-10-17T01:22:18.290Z,14.15
2017-10-17T01:23:18.291Z,14.15
2017-10-17T01:24:18.312Z,14.30
2017-10-17T01:25:18.331Z,14.23
2017-10-17T01:26:18.350Z,14.22
2017-10-17T01:27:18.371Z,14.17
2017-10-17T01:28:18.392Z,14.33
2017-10-17T01:29:18.413Z,14.22
2017-10-17T01:30:18.428Z,14.22
2017-10-17T01:31:18.447Z,14.23
2017-10-17T01:32:18.469Z,14.29
2017-10-17T01:33:18.489Z,14.32
2017-10-17T01:34:18.547Z,14.33
2017-10-17T01:35:18.529Z,14.33
2017-10-17T01:36:18.554Z,14.29
2017-10-17T01:37:18.568Z,14.35
2017-10-17T01:38:18.584Z,14.17
2017-10-17T01:39:18.605Z,14.26
2017-10-17T01:40:18.623Z,14.25
2017-10-17T01:41:18.646Z,14.40
2017-10-17T01:42:18.664Z,14.44
2017-10-17T01:43:18.685Z,14.48
2017-10-17T01:44:18.704Z,14.48
2017-10-17T01:45:18.722Z,14.53
2017-10-17T01:46:18.747Z,14.55
2017-10-17T01:47:18.761Z,14.54
2017-10-17T01:48:18.783Z,14.55
2017-10-17T01:49:18.804Z,14.59
2017-10-17T01:50:18.820Z,14.62
2017-10-17T01:51:18.889Z,14.77
2017-10-17T01:52:18.861Z,14.73
2017-10-17T01:53:18.878Z,14.77
2017-10-17T01:54:18.897Z,14.79
2017-10-17T01:55:18.917Z,14.82
2017-10-17T01:56:18.939Z,14.84
2017-10-17T01:57:18.956Z,14.79
2017-10-17T01:58:18.977Z,14.78
2017-10-17T01:59:18.995Z,14.79
2017-10-17T02:00:19.018Z,14.78
2017-10-17T02:01:19.059Z,14.72
2017-10-17T02:02:19.056Z,14.88
2017-10-17T02:03:19.076Z,14.78
2017-10-17T02:04:19.112Z,14.85
2017-10-17T02:05:19.114Z,14.78
2017-10-17T02:06:19.134Z,14.78
2017-10-17T02:07:19.155Z,14.73
2017-10-17T02:08:19.176Z,14.81
2017-10-17T02:09:19.196Z,14.78
2017-10-17T02:10:19.216Z,14.84
2017-10-17T02:11:19.244Z,14.88
2017-10-17T02:12:19.267Z,14.81
2017-10-17T02:13:19.273Z,14.79
2017-10-17T02:14:19.307Z,14.77
2017-10-17T02:15:19.316Z,14.78
2017-10-17T02:16:19.333Z,14.72
2017-10-17T02:17:19.353Z,14.70
2017-10-17T02:18:19.371Z,14.72
2017-10-17T02:19:19.390Z,14.70
2017-10-17T02:20:19.486Z,14.65
2017-10-17T02:21:19.428Z,14.59
2017-10-17T02:22:19.450Z,14.66
2017-10-17T02:23:19.472Z,14.62
2017-10-17T02:24:19.491Z,14.62
2017-10-17T02:25:19.510Z,14.62
2017-10-17T02:26:19.530Z,14.69
2017-10-17T02:27:19.559Z,14.65
2017-10-17T02:28:19.567Z,14.60
2017-10-17T02:29:19.609Z,14.66
2017-10-17T02:30:19.613Z,14.59
2017-10-17T02:31:19.627Z,14.47
2017-10-17T02:32:19.647Z,14.43
2017-10-17T02:33:19.665Z,14.51
2017-10-17T02:34:19.689Z,14.48
2017-10-17T02:35:19.707Z,14.43
2017-10-17T02:36:19.728Z,14.41
2017-10-17T02:37:19.747Z,14.40
2017-10-17T02:38:19.764Z,14.40
2017-10-17T02:39:19.786Z,14.41
2017-10-17T02:40:19.804Z,14.32
2017-10-17T02:41:19.824Z,14.23
2017-10-17T02:42:19.843Z,14.35
2017-10-17T02:43:19.863Z,14.28
2017-10-17T02:44:19.884Z,14.36
2017-10-17T02:45:19.903Z,14.32
2017-10-17T02:46:19.923Z,14.35
2017-10-17T02:47:19.943Z,14.37
2017-10-17T02:48:19.964Z,14.33
2017-10-17T02:49:19.979Z,14.37
2017-10-17T02:50:20.002Z,14.33
2017-10-17T02:51:20.020Z,14.25
2017-10-17T02:52:20.047Z,14.17
2017-10-17T02:53:20.062Z,14.17
2017-10-17T02:54:20.080Z,14.28
2017-10-17T02:55:20.099Z,14.18
2017-10-17T02:56:20.118Z,14.22
2017-10-17T02:57:20.141Z,14.12
2017-10-17T02:58:20.158Z,14.12
2017-10-17T02:59:20.177Z,14.11
2017-10-17T03:00:20.198Z,14.03
2017-10-17T03:01:20.215Z,14.12
2017-10-17T03:02:20.234Z,14.05
2017-10-17T03:03:20.254Z,14.00
2017-10-17T03:04:20.273Z,13.99
2017-10-17T03:05:20.294Z,14.05
2017-10-17T03:06:20.314Z,14.07
2017-10-17T03:07:20.336Z,14.05
2017-10-17T03:08:20.355Z,13.97
2017-10-17T03:09:20.373Z,14.00
2017-10-17T03:10:20.392Z,14.04
2017-10-17T03:11:20.412Z,14.08
2017-10-17T03:12:20.432Z,14.10
2017-10-17T03:13:20.457Z,14.00
2017-10-17T03:14:20.476Z,13.97
2017-10-17T03:15:20.491Z,14.00
2017-10-17T03:16:20.511Z,14.00
2017-10-17T03:17:20.530Z,14.08
2017-10-17T03:18:20.550Z,13.95
2017-10-17T03:19:20.569Z,14.00
2017-10-17T03:20:20.585Z,13.97
2017-10-17T03:21:20.606Z,14.03
2017-10-17T03:22:20.625Z,14.11
2017-10-17T03:23:20.647Z,14.11
2017-10-17T03:24:20.664Z,13.99
2017-10-17T03:25:20.689Z,14.04
2017-10-17T03:26:20.704Z,14.03
2017-10-17T03:27:20.724Z,13.97
2017-10-17T03:28:20.748Z,14.03
2017-10-17T03:29:20.767Z,14.04
2017-10-17T03:30:20.783Z,14.03
2017-10-17T03:31:20.804Z,14.10
2017-10-17T03:32:20.820Z,14.07
2017-10-17T03:33:20.840Z,14.10
2017-10-17T03:34:20.860Z,14.00
2017-10-17T03:35:20.955Z,14.07
2017-10-17T03:36:20.901Z,13.97
2017-10-17T03:37:20.920Z,13.97
2017-10-17T03:38:20.951Z,13.97
2017-10-17T03:39:20.958Z,13.97
2017-10-17T03:40:20.983Z,14.00
2017-10-17T03:41:20.997Z,13.97
2017-10-17T03:42:21.017Z,14.04
2017-10-17T03:43:21.036Z,13.93
2017-10-17T03:44:21.056Z,14.03
2017-10-17T03:45:21.076Z,14.03
2017-10-17T03:46:21.096Z,13.99
2017-10-17T03:47:21.110Z,14.00
2017-10-17T03:48:21.134Z,13.96
2017-10-17T03:49:21.158Z,14.00
2017-10-17T03:50:21.170Z,13.99
2017-10-17T03:51:21.190Z,13.99
2017-10-17T03:52:21.217Z,14.00
2017-10-17T03:53:21.232Z,13.95
2017-10-17T03:54:21.248Z,13.99
2017-10-17T03:55:21.276Z,13.96
2017-10-17T03:56:21.288Z,13.95
2017-10-17T03:57:21.305Z,13.97
2017-10-17T03:58:21.335Z,13.93
2017-10-17T03:59:21.350Z,13.90
2017-10-17T04:00:21.365Z,13.92
2017-10-17T04:01:21.384Z,13.90
2017-10-17T04:02:21.406Z,13.86
2017-10-17T04:03:21.425Z,13.87
2017-10-17T04:04:21.443Z,13.81
2017-10-17T04:05:21.465Z,13.85
2017-10-17T04:06:21.483Z,13.85
2017-10-17T04:07:21.504Z,13.87
2017-10-17T04:08:21.520Z,13.78
2017-10-17T04:09:21.547Z,13.85
2017-10-17T04:10:21.562Z,13.85
2017-10-17T04:11:21.582Z,13.78
2017-10-17T04:12:21.599Z,13.81
2017-10-17T04:13:21.618Z,13.71
2017-10-17T04:14:21.636Z,13.79
2017-10-17T04:15:21.656Z,13.71
2017-10-17T04:16:21.678Z,13.75
2017-10-17T04:17:21.696Z,13.72
2017-10-17T04:18:21.725Z,13.71
2017-10-17T04:19:21.736Z,13.68
2017-10-17T04:20:21.753Z,13.59
2017-10-17T04:21:21.771Z,13.54
2017-10-17T04:22:21.793Z,13.50
2017-10-17T04:23:21.811Z,13.46
2017-10-17T04:24:21.843Z,13.35
2017-10-17T04:25:21.851Z,13.44
2017-10-17T04:26:21.869Z,13.46
2017-10-17T04:27:21.889Z,13.44
2017-10-17T04:28:21.910Z,13.49
2017-10-17T04:29:21.935Z,13.53
2017-10-17T04:30:21.948Z,13.57
2017-10-17T04:31:21.965Z,13.54
2017-10-17T04:32:21.988Z,13.47
2017-10-17T04:33:22.004Z,13.52
2017-10-17T04:34:22.024Z,13.49
2017-10-17T04:35:22.044Z,13.37
2017-10-17T04:36:22.062Z,13.28
2017-10-17T04:37:22.084Z,13.33
2017-10-17T04:38:22.100Z,13.38
2017-10-17T04:39:22.123Z,13.33
2017-10-17T04:40:22.140Z,13.38
2017-10-17T04:41:22.163Z,13.33
2017-10-17T04:42:22.182Z,13.33
2017-10-17T04:43:22.199Z,13.37
2017-10-17T04:44:22.217Z,13.35
2017-10-17T04:45:22.236Z,13.28
2017-10-17T04:46:22.256Z,13.33
2017-10-17T04:47:22.277Z,13.22
2017-10-17T04:48:22.296Z,13.28
2017-10-17T04:49:22.318Z,13.27
2017-10-17T04:50:22.333Z,13.25
2017-10-17T04:51:22.355Z,13.23
2017-10-17T04:52:22.373Z,13.27
2017-10-17T04:53:22.390Z,13.33
2017-10-17T04:54:22.410Z,13.25
2017-10-17T04:55:22.474Z,13.27
2017-10-17T04:56:22.448Z,13.27
2017-10-17T04:57:22.467Z,13.18
2017-10-17T04:58:22.485Z,13.15
2017-10-17T04:59:22.505Z,13.16
2017-10-17T05:00:22.524Z,13.12
2017-10-17T05:01:22.543Z,13.23
2017-10-17T05:02:22.563Z,13.23
2017-10-17T05:03:22.586Z,13.20
2017-10-17T05:04:22.603Z,13.15
2017-10-17T05:05:22.628Z,13.11
2017-10-17T05:06:22.640Z,13.12
2017-10-17T05:07:22.658Z,12.94
2017-10-17T05:08:22.680Z,13.08
2017-10-17T05:09:22.697Z,13.12
2017-10-17T05:10:22.718Z,13.09
2017-10-17T05:11:22.739Z,12.94
2017-10-17T05:12:22.762Z,13.00
2017-10-17T05:13:22.779Z,13.13
2017-10-17T05:14:22.806Z,13.13
2017-10-17T05:15:22.816Z,13.05
2017-10-17T05:16:22.832Z,12.98
2017-10-17T05:17:22.851Z,13.05
2017-10-17T05:18:22.873Z,12.95
2017-10-17T05:19:22.892Z,12.95
2017-10-17T05:20:22.908Z,12.98
2017-10-17T05:21:22.928Z,13.08
2017-10-17T05:22:22.946Z,13.13
2017-10-17T05:23:22.967Z,13.01
2017-10-17T05:24:22.987Z,12.98
2017-10-17T05:25:23.004Z,12.98
2017-10-17T05:26:23.026Z,12.91
2017-10-17T05:27:23.042Z,12.97
2017-10-17T05:28:23.063Z,13.00
2017-10-17T05:29:23.082Z,13.09
2017-10-17T05:30:23.101Z,12.95
2017-10-17T05:31:23.118Z,12.97
2017-10-17T05:32:23.140Z,13.00
2017-10-17T05:33:23.159Z,13.04
2017-10-17T05:34:23.181Z,12.98
2017-10-17T05:35:23.195Z,13.01
2017-10-17T05:36:23.216Z,13.00
2017-10-17T05:37:23.234Z,13.00
2017-10-17T05:38:23.256Z,12.95
2017-10-17T05:39:23.277Z,12.98
2017-10-17T05:40:23.344Z,12.64
2017-10-17T05:41:23.321Z,12.75
2017-10-17T05:42:23.335Z,12.87
2017-10-17T05:43:23.351Z,12.90
2017-10-17T05:44:23.368Z,13.00
2017-10-17T05:45:23.400Z,12.90
2017-10-17T05:46:23.405Z,12.87
2017-10-17T05:47:23.425Z,12.98
2017-10-17T05:48:23.444Z,13.03
2017-10-17T05:49:23.463Z,12.85
2017-10-17T05:50:23.481Z,12.91
2017-10-17T05:51:23.500Z,12.94
2017-10-17T05:52:23.521Z,12.80
2017-10-17T05:53:23.540Z,12.86
2017-10-17T05:54:23.556Z,12.79
2017-10-17T05:55:23.578Z,12.95
2017-10-17T05:56:23.596Z,12.95
2017-10-17T05:57:23.615Z,13.03
2017-10-17T05:58:23.637Z,12.97
2017-10-17T05:59:23.655Z,13.01
2017-10-17T06:00:23.673Z,13.03
2017-10-17T06:01:23.692Z,12.94
2017-10-17T06:02:23.710Z,13.01
2017-10-17T06:03:23.733Z,12.97
2017-10-17T06:04:23.751Z,12.94
2017-10-17T06:05:23.770Z,13.12
2017-10-17T06:06:23.797Z,13.15
2017-10-17T06:07:23.806Z,13.05
2017-10-17T06:08:23.826Z,13.08
2017-10-17T06:09:23.844Z,13.20
2017-10-17T06:10:23.863Z,13.11
2017-10-17T06:11:23.890Z,13.28
2017-10-17T06:12:23.909Z,13.27
2017-10-17T06:13:23.926Z,13.31
2017-10-17T06:14:23.941Z,13.37
2017-10-17T06:15:23.960Z,13.37
2017-10-17T06:16:23.983Z,13.30
2017-10-17T06:17:23.999Z,13.20
2017-10-17T06:18:24.021Z,13.33
2017-10-17T06:19:24.039Z,13.42
2017-10-17T06:20:24.058Z,13.52
2017-10-17T06:21:24.075Z,13.57
2017-10-17T06:22:24.095Z,13.63
2017-10-17T06:23:24.113Z,13.65
2017-10-17T06:24:24.133Z,13.72
2017-10-17T06:25:24.152Z,13.81
2017-10-17T06:26:24.172Z,13.83
2017-10-17T06:27:24.190Z,13.87
2017-10-17T06:28:24.210Z,13.79
2017-10-17T06:29:24.231Z,13.96
2017-10-17T06:30:24.251Z,14.07
2017-10-17T06:31:24.269Z,14.11
2017-10-17T06:32:24.288Z,14.11
2017-10-17T06:33:24.310Z,14.29
2017-10-17T06:34:24.336Z,14.48
2017-10-17T06:35:24.346Z,14.48
2017-10-17T06:36:24.368Z,14.62
2017-10-17T06:37:24.389Z,14.84
2017-10-17T06:38:24.407Z,14.88
2017-10-17T06:39:24.426Z,15.06
2017-10-17T06:40:24.447Z,15.25
2017-10-17T06:41:24.470Z,15.24
2017-10-17T06:42:24.489Z,15.44
2017-10-17T06:43:24.508Z,15.57
2017-10-17T06:44:24.525Z,15.70
2017-10-17T06:45:24.547Z,15.86
2017-10-17T06:46:24.571Z,15.90
2017-10-17T06:47:24.589Z,15.95
2017-10-17T06:48:24.608Z,16.16
2017-10-17T06:49:24.639Z,16.23
2017-10-17T06:50:24.649Z,16.46
2017-10-17T06:51:24.683Z,16.58
2017-10-17T06:52:24.691Z,16.49
2017-10-17T06:53:24.710Z,16.54
2017-10-17T06:54:24.734Z,16.69
2017-10-17T06:55:24.754Z,16.76
2017-10-17T06:56:24.775Z,16.94
2017-10-17T06:57:24.803Z,16.96
2017-10-17T06:58:24.818Z,17.06
2017-10-17T06:59:24.838Z,17.20
2017-10-17T07:00:24.860Z,17.26
2017-10-17T07:01:24.879Z,17.30
2017-10-17T07:02:24.906Z,17.36
2017-10-17T07:03:24.921Z,17.41
2017-10-17T07:04:24.951Z,17.42
2017-10-17T07:05:24.967Z,17.46
2017-10-17T07:06:24.993Z,17.72
2017-10-17T07:07:25.011Z,17.79
2017-10-17T07:08:25.037Z,17.80
2017-10-17T07:09:25.051Z,17.82
2017-10-17T07:10:25.075Z,17.82
2017-10-17T07:11:25.095Z,17.49
2017-10-17T07:12:25.116Z,17.54
2017-10-17T07:13:25.138Z,17.68
2017-10-17T07:14:25.159Z,17.70
2017-10-17T07:15:25.181Z,17.76
2017-10-17T07:16:25.202Z,17.87
2017-10-17T07:17:25.227Z,17.95
2017-10-17T07:18:25.248Z,17.89
2017-10-17T07:19:25.268Z,17.80
2017-10-17T07:20:25.290Z,17.79
2017-10-17T07:21:25.311Z,17.79
2017-10-17T07:22:25.334Z,17.83
2017-10-17T07:23:25.353Z,17.76
2017-10-17T07:24:25.375Z,17.68
2017-10-17T07:25:25.396Z,17.65
2017-10-17T07:26:25.422Z,17.74
2017-10-17T07:27:25.442Z,17.82
2017-10-17T07:28:25.464Z,17.72
2017-10-17T07:29:25.484Z,17.76
2017-10-17T07:30:25.518Z,17.83
2017-10-17T07:31:25.529Z,17.74
2017-10-17T07:32:25.549Z,17.80
2017-10-17T07:33:25.570Z,17.85
2017-10-17T07:34:25.592Z,17.71
2017-10-17T07:35:25.619Z,17.42
2017-10-17T07:36:25.632Z,17.51
2017-10-17T07:37:26.384Z,17.64
2017-10-17T07:38:25.677Z,17.68
2017-10-17T07:39:25.698Z,17.51
2017-10-17T07:40:25.719Z,17.57
2017-10-17T07:41:25.743Z,17.49
2017-10-17T07:42:25.765Z,17.64
2017-10-17T07:43:25.785Z,17.78
2017-10-17T07:44:25.809Z,17.85
2017-10-17T07:45:25.831Z,17.92
2017-10-17T07:46:25.850Z,17.98
2017-10-17T07:47:25.873Z,18.13
2017-10-17T07:48:25.895Z,18.03
2017-10-17T07:49:25.923Z,18.11
2017-10-17T07:50:25.937Z,18.10
2017-10-17T07:51:25.958Z,17.95
2017-10-17T07:52:25.978Z,17.90
2017-10-17T07:53:26.005Z,17.97
2017-10-17T07:54:26.022Z,18.07
2017-10-17T07:55:26.043Z,17.98
2017-10-17T07:56:26.068Z,18.08
2017-10-17T07:57:26.090Z,18.20
2017-10-17T07:58:26.111Z,18.16
2017-10-17T07:59:26.130Z,18.29
2017-10-17T08:00:26.154Z,18.25
2017-10-17T08:01:26.174Z,18.26
2017-10-17T08:02:26.195Z,18.26
2017-10-17T08:03:26.216Z,18.38
2017-10-17T08:04:26.241Z,18.37
2017-10-17T08:05:26.263Z,18.33
2017-10-17T08:06:26.285Z,18.49
2017-10-17T08:07:26.326Z,18.52
2017-10-17T08:08:26.326Z,18.60
2017-10-17T08:09:26.346Z,18.53
2017-10-17T08:10:26.368Z,18.53
2017-10-17T08:11:26.391Z,18.45
2017-10-17T08:12:26.413Z,18.38
2017-10-17T08:13:26.438Z,18.41
2017-10-17T08:14:26.456Z,18.05
2017-10-17T08:15:26.479Z,18.08
2017-10-17T08:16:26.502Z,18.26
2017-10-17T08:17:26.523Z,18.33
2017-10-17T08:18:26.544Z,18.35
2017-10-17T08:19:26.562Z,18.43
2017-10-17T08:20:26.587Z,18.45
2017-10-17T08:21:26.606Z,18.44
2017-10-17T08:22:26.632Z,18.55
2017-10-17T08:23:26.655Z,18.40
2017-10-17T08:24:26.671Z,18.53
2017-10-17T08:25:26.694Z,18.56
2017-10-17T08:26:26.716Z,18.60
2017-10-17T08:27:26.738Z,18.66
2017-10-17T08:28:26.763Z,18.71
2017-10-17T08:29:26.779Z,18.66
2017-10-17T08:30:26.800Z,18.44
2017-10-17T08:31:26.822Z,18.58
2017-10-17T08:32:26.845Z,18.71
2017-10-17T08:33:26.866Z,18.84
2017-10-17T08:34:26.889Z,18.86
2017-10-17T08:35:26.912Z,18.84
2017-10-17T08:36:26.937Z,18.86
2017-10-17T08:37:26.956Z,19.00
2017-10-17T08:38:26.978Z,19.11
2017-10-17T08:39:27.001Z,19.16
2017-10-17T08:40:27.019Z,19.21
2017-10-17T08:41:27.041Z,19.22
2017-10-17T08:42:27.064Z,19.19
2017-10-17T08:43:27.089Z,19.26
2017-10-17T08:44:27.106Z,19.16
2017-10-17T08:45:27.129Z,19.04
2017-10-17T08:46:27.151Z,19.12
2017-10-17T08:47:27.173Z,19.02
2017-10-17T08:48:27.194Z,18.95
2017-10-17T08:49:27.240Z,19.09
2017-10-17T08:50:27.243Z,19.29
2017-10-17T08:51:27.262Z,19.45
2017-10-17T08:52:27.282Z,19.34
2017-10-17T08:53:27.305Z,19.34
2017-10-17T08:54:27.327Z,19.49
2017-10-17T08:55:27.351Z,19.70
2017-10-17T08:56:27.373Z,19.55
2017-10-17T08:57:27.397Z,19.11
2017-10-17T08:58:27.419Z,19.16
2017-10-17T08:59:27.439Z,19.30
2017-10-17T09:00:27.459Z,19.55
2017-10-17T09:01:27.481Z,19.48
2017-10-17T09:02:27.511Z,19.58
2017-10-17T09:03:27.533Z,19.58
2017-10-17T09:04:27.549Z,19.81
2017-10-17T09:05:27.573Z,19.77
2017-10-17T09:06:27.594Z,19.89
2017-10-17T09:07:27.615Z,19.86
2017-10-17T09:08:27.640Z,19.88
2017-10-17T09:09:27.663Z,19.96
2017-10-17T09:10:27.685Z,19.76
2017-10-17T09:11:27.704Z,19.74
2017-10-17T09:12:27.731Z,19.85
2017-10-17T09:13:27.748Z,19.96
2017-10-17T09:14:27.771Z,19.92
2017-10-17T09:15:27.795Z,20.11
2017-10-17T09:16:27.818Z,20.10
2017-10-17T09:17:27.842Z,20.19
2017-10-17T09:18:27.862Z,19.95
2017-10-17T09:19:27.885Z,20.13
2017-10-17T09:20:27.907Z,20.11
2017-10-17T09:21:27.929Z,20.26
2017-10-17T09:22:27.955Z,20.36
2017-10-17T09:23:27.974Z,20.41
2017-10-17T09:24:27.994Z,20.25
2017-10-17T09:25:28.020Z,20.39
2017-10-17T09:26:28.039Z,20.41
2017-10-17T09:27:28.065Z,20.02
2017-10-17T09:28:28.089Z,19.91
2017-10-17T09:29:28.107Z,19.86
2017-10-17T09:30:28.134Z,19.67
2017-10-17T09:31:28.153Z,19.74
2017-10-17T09:32:28.179Z,19.91
2017-10-17T09:33:28.199Z,19.89
2017-10-17T09:34:28.222Z,19.85
2017-10-17T09:35:28.242Z,19.74
2017-10-17T09:36:28.268Z,19.66
2017-10-17T09:37:28.288Z,19.71
2017-10-17T09:38:28.310Z,19.81
2017-10-17T09:39:28.334Z,19.91
2017-10-17T09:40:28.355Z,19.64
2017-10-17T09:41:28.379Z,19.86
2017-10-17T09:42:28.402Z,19.84
2017-10-17T09:43:28.428Z,19.92
2017-10-17T09:44:28.445Z,19.91
2017-10-17T09:45:28.469Z,19.82
2017-10-17T09:46:28.495Z,19.79
2017-10-17T09:47:28.514Z,19.77
2017-10-17T09:48:28.536Z,19.73
2017-10-17T09:49:28.564Z,19.66
2017-10-17T09:50:28.580Z,19.64
2017-10-17T09:51:28.603Z,19.70
2017-10-17T09:52:28.627Z,19.79
2017-10-17T09:53:28.652Z,19.82
2017-10-17T09:54:28.672Z,20.00
2017-10-17T09:55:28.694Z,20.32
2017-10-17T09:56:28.723Z,20.10
2017-10-17T09:57:28.741Z,20.29
2017-10-17T09:58:28.761Z,20.09
2017-10-17T09:59:28.785Z,20.18
2017-10-17T10:00:28.808Z,20.03
2017-10-17T10:01:28.829Z,19.88
2017-10-17T10:02:28.853Z,20.16
2017-10-17T10:03:28.874Z,20.40
2017-10-17T10:04:28.898Z,20.59
2017-10-17T10:05:28.919Z,20.75
2017-10-17T10:06:28.945Z,20.69
2017-10-17T10:07:28.964Z,20.58
2017-10-17T10:08:28.989Z,20.29
2017-10-17T10:09:29.010Z,20.24
2017-10-17T10:10:29.032Z,20.43
2017-10-17T10:11:29.057Z,20.74
2017-10-17T10:12:29.104Z,20.81
2017-10-17T10:13:29.101Z,20.81
2017-10-17T10:14:29.139Z,20.95
2017-10-17T10:15:29.146Z,21.07
2017-10-17T10:16:29.171Z,21.02
2017-10-17T10:17:29.194Z,21.14
2017-10-17T10:18:29.216Z,21.12
2017-10-17T10:19:29.239Z,21.03
2017-10-17T10:20:29.263Z,21.20
2017-10-17T10:21:29.299Z,21.42
2017-10-17T10:22:29.308Z,21.48
2017-10-17T10:23:29.331Z,21.20
2017-10-17T10:24:29.353Z,21.20
2017-10-17T10:25:29.378Z,21.06
2017-10-17T10:26:29.400Z,21.09
2017-10-17T10:27:29.422Z,21.17
2017-10-17T10:28:29.445Z,21.35
2017-10-17T10:29:29.483Z,21.48
2017-10-17T10:30:29.493Z,21.05
2017-10-17T10:31:29.513Z,20.36
2017-10-17T10:32:29.537Z,20.22
2017-10-17T10:33:29.569Z,19.99
2017-10-17T10:34:29.584Z,20.41
2017-10-17T10:35:29.614Z,20.85
2017-10-17T10:36:29.633Z,20.65
2017-10-17T10:37:29.652Z,20.58
2017-10-17T10:38:29.679Z,20.43
2017-10-17T10:39:29.700Z,20.47
2017-10-17T10:40:29.784Z,20.14
2017-10-17T10:41:29.744Z,20.09
2017-10-17T10:42:29.769Z,20.13
2017-10-17T10:43:29.790Z,20.09
2017-10-17T10:44:29.817Z,19.88
2017-10-17T10:45:29.837Z,20.03
2017-10-17T10:46:29.863Z,19.99
2017-10-17T10:47:29.889Z,20.50
2017-10-17T10:48:29.907Z,20.56
2017-10-17T10:49:29.931Z,20.32
2017-10-17T10:50:29.955Z,20.24
2017-10-17T10:51:29.974Z,20.56
2017-10-17T10:52:29.999Z,20.28
2017-10-17T10:53:30.021Z,20.67
2017-10-17T10:54:30.045Z,20.97
2017-10-17T10:55:30.067Z,20.95
2017-10-17T10:56:30.092Z,20.88
2017-10-17T10:57:30.114Z,20.75
2017-10-17T10:58:30.137Z,20.67
2017-10-17T10:59:30.164Z,20.52
2017-10-17T11:00:30.183Z,20.62
2017-10-17T11:01:30.215Z,20.69
2017-10-17T11:02:30.231Z,20.81
2017-10-17T11:03:30.252Z,20.95
2017-10-17T11:04:30.273Z,21.25
2017-10-17T11:05:30.296Z,21.35
2017-10-17T11:06:30.324Z,21.55
2017-10-17T11:07:30.344Z,21.69
2017-10-17T11:08:30.366Z,21.66
2017-10-17T11:09:30.388Z,21.46
2017-10-17T11:10:30.428Z,21.55
2017-10-17T11:11:30.442Z,21.36
2017-10-17T11:12:30.457Z,21.30
2017-10-17T11:13:30.480Z,21.05
2017-10-17T11:14:30.504Z,20.81
2017-10-17T11:15:30.530Z,20.95
2017-10-17T11:16:30.553Z,21.14
2017-10-17T11:17:30.574Z,20.97
2017-10-17T11:18:30.599Z,20.96
2017-10-17T11:19:30.619Z,21.06
2017-10-17T11:20:30.643Z,21.07
2017-10-17T11:21:30.667Z,21.42
2017-10-17T11:22:30.688Z,21.36
2017-10-17T11:23:30.713Z,21.36
2017-10-17T11:24:30.737Z,21.45
2017-10-17T11:25:30.758Z,21.60
2017-10-17T11:26:30.780Z,21.52
2017-10-17T11:27:30.806Z,21.58
2017-10-17T11:28:30.829Z,21.62
2017-10-17T11:29:30.852Z,21.52
2017-10-17T11:30:30.880Z,21.64
2017-10-17T11:31:30.898Z,21.69
2017-10-17T11:32:30.922Z,21.20
2017-10-17T11:33:30.943Z,20.97
2017-10-17T11:34:30.968Z,20.85
2017-10-17T11:35:30.991Z,20.66
2017-10-17T11:36:31.015Z,20.62
2017-10-17T11:37:31.037Z,20.69
2017-10-17T11:38:31.068Z,20.69
2017-10-17T11:39:31.082Z,20.62
2017-10-17T11:40:31.108Z,20.58
2017-10-17T11:41:31.130Z,20.70
2017-10-17T11:42:31.153Z,20.60
2017-10-17T11:43:31.177Z,20.88
2017-10-17T11:44:31.200Z,20.85
2017-10-17T11:45:31.222Z,20.70
2017-10-17T11:46:31.242Z,20.70
2017-10-17T11:47:31.268Z,20.59
2017-10-17T11:48:31.291Z,20.81
2017-10-17T11:49:31.316Z,20.74
2017-10-17T11:50:31.337Z,20.74
2017-10-17T11:51:31.358Z,20.78
2017-10-17T11:52:31.383Z,20.80
2017-10-17T11:53:31.406Z,20.96
2017-10-17T11:54:31.427Z,21.00
2017-10-17T11:55:31.450Z,21.02
2017-10-17T11:56:31.475Z,20.85
2017-10-17T11:57:31.499Z,20.93
2017-10-17T11:58:31.519Z,20.97
2017-10-17T11:59:31.550Z,20.97
2017-10-17T12:00:31.572Z,20.85
2017-10-17T12:01:31.596Z,20.70
2017-10-17T12:02:31.620Z,20.70
2017-10-17T12:03:31.637Z,20.59
2017-10-17T12:04:31.659Z,20.60
2017-10-17T12:05:31.681Z,20.63
2017-10-17T12:06:31.704Z,20.72
2017-10-17T12:07:31.726Z,20.90
2017-10-17T12:08:31.752Z,20.40
2017-10-17T12:09:31.772Z,20.50
2017-10-17T12:10:31.806Z,20.59
2017-10-17T12:11:31.818Z,20.72
2017-10-17T12:12:31.839Z,20.74
2017-10-17T12:13:31.862Z,20.44
2017-10-17T12:14:31.886Z,20.51
2017-10-17T12:15:31.910Z,20.37
2017-10-17T12:16:31.933Z,20.55
2017-10-17T12:17:31.955Z,20.82
2017-10-17T12:18:31.981Z,20.70
2017-10-17T12:19:31.999Z,20.62
2017-10-17T12:20:32.022Z,20.72
2017-10-17T12:21:32.045Z,20.70
2017-10-17T12:22:32.069Z,20.84
2017-10-17T12:23:32.091Z,20.88
2017-10-17T12:24:32.111Z,20.87
2017-10-17T12:25:32.134Z,20.74
2017-10-17T12:26:32.160Z,20.75
2017-10-17T12:27:32.183Z,20.69
2017-10-17T12:28:32.221Z,20.85
2017-10-17T12:29:32.227Z,21.17
2017-10-17T12:30:32.250Z,21.14
2017-10-17T12:31:32.272Z,21.05
2017-10-17T12:32:32.296Z,20.85
2017-10-17T12:33:32.320Z,20.81
2017-10-17T12:34:32.343Z,20.84
2017-10-17T12:35:32.365Z,20.87
2017-10-17T12:36:32.386Z,20.87
2017-10-17T12:37:32.410Z,20.92
2017-10-17T12:38:32.435Z,20.93
2017-10-17T12:39:32.460Z,20.99
2017-10-17T12:40:32.481Z,20.82
2017-10-17T12:41:32.501Z,20.70
2017-10-17T12:42:32.526Z,20.70
2017-10-17T12:43:32.548Z,20.70
2017-10-17T12:44:32.569Z,20.84
2017-10-17T12:45:32.592Z,20.92
2017-10-17T12:46:32.617Z,21.07
2017-10-17T12:47:32.638Z,21.09
2017-10-17T12:48:32.677Z,21.07
2017-10-17T12:49:32.684Z,21.00
2017-10-17T12:50:32.707Z,20.99
2017-10-17T12:51:32.733Z,20.93
2017-10-17T12:52:32.757Z,20.96